createdAt,value
2017-12-28T00:01:20.320Z,21.53
2017-12-28T00:03:48.556Z,21.07
2017-12-28T00:06:17.532Z,20.27
2017-12-28T00:08:46.535Z,25.20
2017-12-28T00:11:15.517Z,19.70
2017-12-28T00:13:43.749Z,19.20
2017-12-28T00:16:11.962Z,20.10
2017-12-28T00:18:40.373Z,18.87
2017-12-28T00:21:08.597Z,23.20
2017-12-28T00:23:36.825Z,21.47
2017-12-28T00:26:05.094Z,17.53
2017-12-28T00:28:33.318Z,18.20
2017-12-28T00:31:01.568Z,21.97
2017-12-28T00:33:29.805Z,20.37
2017-12-28T00:35:59.033Z,18.07
2017-12-28T00:38:27.268Z,20.23
2017-12-28T00:40:55.481Z,16.77
2017-12-28T00:43:23.697Z,21.13
2017-12-28T00:45:51.941Z,20.30
2017-12-28T00:48:20.161Z,19.37
2017-12-28T00:50:48.369Z,19.87
2017-12-28T00:53:16.605Z,18.73
2017-12-28T00:55:45.609Z,18.90
2017-12-28T00:58:14.736Z,19.13
2017-12-28T01:00:42.970Z,21.03
2017-12-28T01:03:11.968Z,19.77
2017-12-28T01:05:40.197Z,20.20
2017-12-28T01:08:08.413Z,19.53
2017-12-28T01:10:36.640Z,20.83
2017-12-28T01:13:04.874Z,19.13
2017-12-28T01:15:33.882Z,22.10
2017-12-28T01:18:02.097Z,23.07
2017-12-28T01:20:30.347Z,23.47
2017-12-28T01:22:59.317Z,25.63
2017-12-28T01:25:27.541Z,21.13
2017-12-28T01:27:55.757Z,23.60
2017-12-28T01:30:24.783Z,22.13
2017-12-28T01:32:53.225Z,22.33
2017-12-28T01:35:21.470Z,24.93
2017-12-28T01:37:49.710Z,20.60
2017-12-28T01:40:17.941Z,18.20
2017-12-28T01:42:46.177Z,22.77
2017-12-28T01:45:14.407Z,22.73
2017-12-28T01:47:54.862Z,21.77
2017-12-28T01:50:23.101Z,18.20
2017-12-28T01:52:51.340Z,22.50
2017-12-28T01:55:19.573Z,20.10
2017-12-28T01:57:47.841Z,19.27
2017-12-28T02:00:16.861Z,18.63
2017-12-28T02:02:45.130Z,18.33
2017-12-28T02:05:14.130Z,19.60
2017-12-28T02:07:42.378Z,23.73
2017-12-28T02:10:10.667Z,23.67
2017-12-28T02:12:39.681Z,19.60
2017-12-28T02:15:07.905Z,20.60
2017-12-28T02:17:36.121Z,24.77
2017-12-28T02:20:04.386Z,23.33
2017-12-28T02:22:32.637Z,21.80
2017-12-28T02:25:00.862Z,23.90
2017-12-28T02:27:29.102Z,24.10
2017-12-28T02:29:58.113Z,22.33
2017-12-28T02:32:27.113Z,21.67
2017-12-28T02:34:55.353Z,22.27
2017-12-28T02:37:23.623Z,23.03
2017-12-28T02:39:52.927Z,23.03
2017-12-28T02:42:21.116Z,23.20
2017-12-28T02:44:50.112Z,24.70
2017-12-28T02:47:19.125Z,24.90
2017-12-28T02:49:47.380Z,21.93
2017-12-28T02:52:15.629Z,19.60
2017-12-28T02:54:43.849Z,20.27
2017-12-28T02:57:12.061Z,21.80
2017-12-28T02:59:40.284Z,24.10
2017-12-28T03:02:08.536Z,22.43
2017-12-28T03:04:36.767Z,21.83
2017-12-28T03:07:05.007Z,21.43
2017-12-28T03:09:34.001Z,21.60
2017-12-28T03:12:02.994Z,17.70
2017-12-28T03:14:31.242Z,23.43
2017-12-28T03:16:59.470Z,22.27
2017-12-28T03:19:27.685Z,27.13
2017-12-28T03:21:55.923Z,23.70
2017-12-28T03:24:24.149Z,25.50
2017-12-28T03:26:53.161Z,22.30
2017-12-28T03:29:22.150Z,20.43
2017-12-28T03:31:51.130Z,27.77
2017-12-28T03:34:19.364Z,26.60
2017-12-28T03:36:47.591Z,25.53
2017-12-28T03:39:16.593Z,28.90
2017-12-28T03:41:45.565Z,27.77
2017-12-28T03:44:13.798Z,32.63
2017-12-28T03:46:42.013Z,29.80
2017-12-28T03:49:10.230Z,23.70
2017-12-28T03:51:38.434Z,19.50
2017-12-28T03:54:06.657Z,18.17
2017-12-28T03:56:35.636Z,17.60
2017-12-28T03:59:03.857Z,18.50
2017-12-28T04:01:32.088Z,15.30
2017-12-28T04:04:01.086Z,17.00
2017-12-28T04:06:29.298Z,13.97
2017-12-28T04:08:57.834Z,15.43
2017-12-28T04:11:26.049Z,14.37
2017-12-28T04:13:54.294Z,14.50
2017-12-28T04:16:22.497Z,17.30
2017-12-28T04:18:50.737Z,13.37
2017-12-28T04:21:19.732Z,12.43
2017-12-28T04:23:48.827Z,16.37
2017-12-28T04:26:17.037Z,14.30
2017-12-28T04:28:46.041Z,13.63
2017-12-28T04:31:14.267Z,16.27
2017-12-28T04:33:43.249Z,15.33
2017-12-28T04:36:12.237Z,15.10
2017-12-28T04:38:40.456Z,17.20
2017-12-28T04:41:08.693Z,16.17
2017-12-28T04:43:37.705Z,17.10
2017-12-28T04:46:06.021Z,16.60
2017-12-28T04:48:34.256Z,15.93
2017-12-28T04:51:02.485Z,14.07
2017-12-28T04:53:30.709Z,13.17
2017-12-28T04:55:58.941Z,16.30
2017-12-28T04:58:27.190Z,12.37
2017-12-28T05:00:55.506Z,13.73
2017-12-28T05:03:23.893Z,16.27
2017-12-28T05:05:52.089Z,16.70
2017-12-28T05:08:20.301Z,16.73
2017-12-28T05:10:48.509Z,14.20
2017-12-28T05:13:17.567Z,14.73
2017-12-28T05:15:45.742Z,15.97
2017-12-28T05:18:14.165Z,15.83
2017-12-28T05:20:42.332Z,14.10
2017-12-28T05:23:11.322Z,14.67
2017-12-28T05:25:40.326Z,16.23
2017-12-28T05:28:09.333Z,16.40
2017-12-28T05:30:37.891Z,17.40
2017-12-28T05:33:06.911Z,14.57
2017-12-28T05:35:35.141Z,14.13
2017-12-28T05:38:03.360Z,18.67
2017-12-28T05:40:31.613Z,16.37
2017-12-28T05:43:00.086Z,13.83
2017-12-28T05:45:28.334Z,12.70
2017-12-28T05:47:56.541Z,12.10
2017-12-28T05:50:25.545Z,13.90
2017-12-28T05:52:53.776Z,12.50
2017-12-28T05:55:22.000Z,12.53
2017-12-28T05:57:50.216Z,15.33
2017-12-28T06:00:18.521Z,17.77
2017-12-28T06:02:46.733Z,18.30
2017-12-28T06:05:14.944Z,16.87
2017-12-28T06:07:43.174Z,17.23
2017-12-28T06:10:11.389Z,15.90
2017-12-28T06:12:39.617Z,15.27
2017-12-28T06:15:08.584Z,18.70
2017-12-28T06:17:36.809Z,17.70
2017-12-28T06:20:05.017Z,19.43
2017-12-28T06:22:34.056Z,17.30
2017-12-28T06:25:02.273Z,19.03
2017-12-28T06:27:30.505Z,23.13
2017-12-28T06:29:58.720Z,19.53
2017-12-28T06:32:26.966Z,18.90
2017-12-28T06:34:55.184Z,18.67
2017-12-28T06:37:23.442Z,14.77
2017-12-28T06:39:51.682Z,12.40
2017-12-28T06:42:19.926Z,17.23
2017-12-28T06:44:49.027Z,14.17
2017-12-28T06:47:18.062Z,18.60
2017-12-28T06:49:46.282Z,17.87
2017-12-28T06:52:14.469Z,19.70
2017-12-28T06:54:43.470Z,20.40
2017-12-28T06:57:11.693Z,23.33
2017-12-28T06:59:39.948Z,18.90
2017-12-28T07:02:09.001Z,21.37
2017-12-28T07:04:37.997Z,24.20
2017-12-28T07:07:06.981Z,19.20
2017-12-28T07:09:35.966Z,18.60
2017-12-28T07:12:04.187Z,18.80
2017-12-28T07:14:32.426Z,19.67
2017-12-28T07:17:01.423Z,17.80
2017-12-28T07:19:30.404Z,22.40
2017-12-28T07:21:58.625Z,21.00
2017-12-28T07:24:26.854Z,17.87
2017-12-28T07:26:55.877Z,18.50
2017-12-28T07:29:24.116Z,14.13
2017-12-28T07:31:52.333Z,16.50
2017-12-28T07:34:20.577Z,16.50
2017-12-28T07:36:48.785Z,15.60
2017-12-28T07:39:17.038Z,15.17
2017-12-28T07:41:45.269Z,16.60
2017-12-28T07:44:15.006Z,16.63
2017-12-28T07:46:43.990Z,14.70
2017-12-28T07:49:12.245Z,16.10
2017-12-28T07:51:40.477Z,16.47
2017-12-28T07:54:09.432Z,16.63
2017-12-28T07:56:37.670Z,11.97
2017-12-28T07:59:05.885Z,14.70
2017-12-28T08:01:34.109Z,16.03
2017-12-28T08:04:02.495Z,13.27
2017-12-28T08:06:31.797Z,12.90
2017-12-28T08:09:00.204Z,13.53
2017-12-28T08:11:28.714Z,16.73
2017-12-28T08:13:57.693Z,24.23
2017-12-28T08:16:25.977Z,13.60
2017-12-28T08:18:54.969Z,14.87
2017-12-28T08:21:23.958Z,17.07
2017-12-28T08:23:52.961Z,17.27
2017-12-28T08:26:21.185Z,17.17
2017-12-28T08:28:49.424Z,17.77
2017-12-28T08:31:17.643Z,15.90
2017-12-28T08:33:45.869Z,13.73
2017-12-28T08:36:14.093Z,17.90
2017-12-28T08:38:42.331Z,16.30
2017-12-28T08:41:10.566Z,16.23
2017-12-28T08:43:39.577Z,15.53
2017-12-28T08:46:07.793Z,15.57
2017-12-28T08:48:36.041Z,15.27
2017-12-28T08:51:04.285Z,15.87
2017-12-28T08:53:32.522Z,15.83
2017-12-28T08:56:00.811Z,15.40
2017-12-28T08:58:29.073Z,15.70
2017-12-28T09:00:57.317Z,16.20
2017-12-28T09:03:26.057Z,12.13
2017-12-28T09:05:54.294Z,15.60
2017-12-28T09:08:22.517Z,10.67
2017-12-28T09:10:50.808Z,14.93
2017-12-28T09:13:19.789Z,18.10
2017-12-28T09:15:48.004Z,16.00
2017-12-28T09:18:16.213Z,12.33
2017-12-28T09:20:44.441Z,12.23
2017-12-28T09:23:12.675Z,12.97
2017-12-28T09:25:40.890Z,14.70
2017-12-28T09:28:09.129Z,12.90
2017-12-28T09:30:38.134Z,11.83
2017-12-28T09:33:07.120Z,10.60
2017-12-28T09:35:35.374Z,14.20
2017-12-28T09:38:03.633Z,12.60
2017-12-28T09:40:31.853Z,13.23
2017-12-28T09:43:00.087Z,16.27
2017-12-28T09:45:28.321Z,14.43
2017-12-28T09:47:57.298Z,13.40
2017-12-28T09:50:26.309Z,17.13
2017-12-28T09:52:54.544Z,13.30
2017-12-28T09:55:22.780Z,17.70
2017-12-28T09:57:51.011Z,14.37
2017-12-28T10:00:19.240Z,15.83
2017-12-28T10:02:47.764Z,14.60
2017-12-28T10:05:16.214Z,18.40
2017-12-28T10:07:44.469Z,15.23
2017-12-28T10:10:12.685Z,15.13
2017-12-28T10:12:40.928Z,15.60
2017-12-28T10:15:09.186Z,14.10
2017-12-28T10:17:37.441Z,12.07
2017-12-28T10:20:05.701Z,13.17
2017-12-28T10:22:34.692Z,13.80
2017-12-28T10:25:03.690Z,13.70
2017-12-28T10:27:31.909Z,13.93
2017-12-28T10:30:00.444Z,14.90
2017-12-28T10:32:28.674Z,13.93
2017-12-28T10:34:56.937Z,15.83
2017-12-28T10:37:25.145Z,15.93
2017-12-28T10:39:53.359Z,11.63
2017-12-28T10:42:21.590Z,14.07
2017-12-28T10:44:49.818Z,13.60
2017-12-28T10:47:18.071Z,13.40
2017-12-28T10:49:46.305Z,14.97
2017-12-28T10:52:14.537Z,15.47
2017-12-28T10:54:42.746Z,16.53
2017-12-28T10:57:10.973Z,15.53
2017-12-28T10:59:39.182Z,15.07
2017-12-28T11:02:07.437Z,17.43
2017-12-28T11:04:35.665Z,14.83
2017-12-28T11:07:04.670Z,12.53
2017-12-28T11:09:33.661Z,16.33
2017-12-28T11:12:02.144Z,15.50
2017-12-28T11:14:31.443Z,15.40
2017-12-28T11:16:59.678Z,17.43
2017-12-28T11:19:27.901Z,17.43
2017-12-28T11:21:56.893Z,16.07
2017-12-28T11:24:25.872Z,16.53
2017-12-28T11:26:54.106Z,21.40
2017-12-28T11:29:22.324Z,16.03
2017-12-28T11:31:50.563Z,20.43
2017-12-28T11:34:18.833Z,19.30
2017-12-28T11:36:47.047Z,26.67
2017-12-28T11:39:15.297Z,21.97
2017-12-28T11:41:43.517Z,22.17
2017-12-28T11:44:11.771Z,19.53
2017-12-28T11:46:40.779Z,16.17
2017-12-28T11:49:09.021Z,17.47
2017-12-28T11:51:43.257Z,17.87
2017-12-28T11:54:12.387Z,18.13
2017-12-28T11:56:40.733Z,17.20
2017-12-28T11:59:14.711Z,19.87
2017-12-28T12:04:43.646Z,19.73
2017-12-28T12:07:12.632Z,20.23
2017-12-28T12:09:46.621Z,22.60
2017-12-28T12:12:14.830Z,21.13
2017-12-28T12:14:43.043Z,17.63
2017-12-28T12:17:11.266Z,17.70
2017-12-28T12:19:39.719Z,18.70
2017-12-28T12:22:08.162Z,19.23
2017-12-28T12:24:36.395Z,24.90
2017-12-28T12:27:05.417Z,20.40
2017-12-28T12:29:33.687Z,24.20
2017-12-28T12:32:02.698Z,19.67
2017-12-28T12:34:30.917Z,23.73
2017-12-28T12:36:59.418Z,21.00
2017-12-28T12:39:28.423Z,21.20
2017-12-28T12:41:57.529Z,17.50
2017-12-28T12:44:25.801Z,18.37
2017-12-28T12:46:54.780Z,19.53
2017-12-28T12:49:23.015Z,17.13
2017-12-28T12:51:51.241Z,17.80
2017-12-28T12:54:19.489Z,14.83
2017-12-28T12:56:48.705Z,16.07
2017-12-28T12:59:17.701Z,19.00
2017-12-28T13:01:45.938Z,15.63
2017-12-28T13:04:14.649Z,16.03
2017-12-28T13:06:42.855Z,17.13
2017-12-28T13:09:11.121Z,20.87
2017-12-28T13:11:39.571Z,17.47
2017-12-28T13:14:08.580Z,17.07
2017-12-28T13:16:37.874Z,18.07
2017-12-28T13:19:06.877Z,22.50
2017-12-28T13:21:35.860Z,20.93
2017-12-28T13:24:04.847Z,20.57
2017-12-28T13:26:33.868Z,19.87
2017-12-28T13:29:02.095Z,19.13
2017-12-28T13:31:30.316Z,19.90
2017-12-28T13:33:58.826Z,18.40
2017-12-28T13:36:27.081Z,18.13
2017-12-28T13:38:55.324Z,19.83
2017-12-28T13:41:24.329Z,19.30
2017-12-28T13:43:52.560Z,17.70
2017-12-28T13:46:20.775Z,15.17
2017-12-28T13:48:49.782Z,14.30
2017-12-28T13:51:18.753Z,14.20
2017-12-28T13:53:47.768Z,16.37
2017-12-28T13:56:16.001Z,15.37
2017-12-28T13:58:45.017Z,16.27
2017-12-28T14:01:14.014Z,14.90
2017-12-28T14:03:43.009Z,15.13
2017-12-28T14:06:12.001Z,17.83
2017-12-28T14:08:41.289Z,17.00
2017-12-28T14:11:10.285Z,18.93
2017-12-28T14:13:38.577Z,16.83
2017-12-28T14:16:06.809Z,18.13
2017-12-28T14:18:35.033Z,15.90
2017-12-28T14:21:03.294Z,18.50
2017-12-28T14:23:31.517Z,11.97
2017-12-28T14:25:59.749Z,17.90
2017-12-28T14:28:28.514Z,18.97
2017-12-28T14:30:57.517Z,20.20
2017-12-28T14:33:26.522Z,16.73
2017-12-28T14:35:54.884Z,16.10
2017-12-28T14:38:23.125Z,16.97
2017-12-28T14:40:51.365Z,16.00
2017-12-28T14:43:19.627Z,15.13
2017-12-28T14:45:47.894Z,17.60
2017-12-28T14:48:16.107Z,18.17
2017-12-28T14:50:44.336Z,20.20
2017-12-28T14:53:12.565Z,17.93
2017-12-28T14:55:41.083Z,23.10
2017-12-28T14:58:10.754Z,17.93
2017-12-28T15:00:38.925Z,17.50
2017-12-28T15:03:07.136Z,20.20
2017-12-28T15:05:36.145Z,19.30
2017-12-28T15:08:04.617Z,18.00
2017-12-28T15:10:32.852Z,18.07
2017-12-28T15:13:01.366Z,20.03
2017-12-28T15:15:30.370Z,19.63
2017-12-28T15:18:00.069Z,18.63
2017-12-28T15:20:29.069Z,18.67
2017-12-28T15:22:58.061Z,21.20
2017-12-28T15:25:26.280Z,14.57
2017-12-28T15:27:54.523Z,41.73
2017-12-28T15:30:22.835Z,17.67
2017-12-28T15:32:51.046Z,15.37
2017-12-28T15:35:19.409Z,16.60
2017-12-28T15:37:47.651Z,18.43
2017-12-28T15:40:15.921Z,20.87
2017-12-28T15:42:44.565Z,16.00
2017-12-28T15:45:13.565Z,14.70
2017-12-28T15:47:42.145Z,23.90
2017-12-28T15:50:10.350Z,16.60
2017-12-28T15:52:38.569Z,18.67
2017-12-28T15:55:06.812Z,22.00
2017-12-28T15:57:35.054Z,16.33
2017-12-28T16:00:03.293Z,23.10
2017-12-28T16:02:31.517Z,20.40
2017-12-28T16:04:59.761Z,17.20
2017-12-28T16:07:28.741Z,21.20
2017-12-28T16:09:56.992Z,19.90
2017-12-28T16:12:25.309Z,19.33
2017-12-28T16:14:53.557Z,20.00
2017-12-28T16:17:21.814Z,21.53
2017-12-28T16:19:50.071Z,21.10
2017-12-28T16:22:18.273Z,19.70
2017-12-28T16:24:46.785Z,24.60
2017-12-28T16:27:15.265Z,25.60
2017-12-28T16:29:43.499Z,21.97
2017-12-28T16:32:11.773Z,25.00
2017-12-28T16:34:40.004Z,21.50
2017-12-28T16:37:08.241Z,24.80
2017-12-28T16:39:37.259Z,18.30
2017-12-28T16:42:05.498Z,19.47
2017-12-28T16:44:33.749Z,25.83
2017-12-28T16:47:02.340Z,21.13
2017-12-28T16:49:30.591Z,24.40
2017-12-28T16:51:58.841Z,23.20
2017-12-28T16:54:27.095Z,22.53
2017-12-28T16:56:56.089Z,19.93
2017-12-28T16:59:24.354Z,23.27
2017-12-28T17:01:52.617Z,18.47
2017-12-28T17:04:20.840Z,20.07
2017-12-28T17:06:49.844Z,17.50
2017-12-28T17:09:18.077Z,13.57
2017-12-28T17:11:46.321Z,15.83
2017-12-28T17:14:14.537Z,14.73
2017-12-28T17:16:42.801Z,16.70
2017-12-28T17:19:11.025Z,14.13
2017-12-28T17:21:39.288Z,12.90
2017-12-28T17:24:07.757Z,16.50
2017-12-28T17:26:36.011Z,15.60
2017-12-28T17:29:05.009Z,16.00
2017-12-28T17:31:33.245Z,17.57
2017-12-28T17:34:01.516Z,18.23
2017-12-28T17:36:29.765Z,18.40
2017-12-28T17:38:58.001Z,17.13
2017-12-28T17:41:27.007Z,17.80
2017-12-28T17:43:56.008Z,19.90
2017-12-28T17:46:25.001Z,18.03
2017-12-28T17:48:54.002Z,17.90
2017-12-28T17:51:22.249Z,19.67
2017-12-28T17:53:51.281Z,20.33
2017-12-28T17:56:19.537Z,19.63
2017-12-28T17:58:48.533Z,21.70
2017-12-28T18:01:17.006Z,23.47
2017-12-28T18:03:45.252Z,23.73
2017-12-28T18:06:13.549Z,22.27
2017-12-28T18:08:42.544Z,24.13
2017-12-28T18:11:11.557Z,21.83
2017-12-28T18:13:40.027Z,21.87
2017-12-28T18:16:09.017Z,22.20
2017-12-28T18:18:37.258Z,22.57
2017-12-28T18:21:05.533Z,24.53
2017-12-28T18:23:33.766Z,27.00
2017-12-28T18:26:01.979Z,23.57
2017-12-28T18:28:30.197Z,23.10
2017-12-28T18:30:59.186Z,23.87
2017-12-28T18:33:27.399Z,25.87
2017-12-28T18:35:55.611Z,27.73
2017-12-28T18:38:24.111Z,23.70
2017-12-28T18:40:53.093Z,24.60
2017-12-28T18:43:22.110Z,22.80
2017-12-28T18:45:50.338Z,25.43
2017-12-28T18:48:18.573Z,24.80
2017-12-28T18:50:46.813Z,25.87
2017-12-28T18:53:15.913Z,24.97
2017-12-28T18:55:44.913Z,24.77
2017-12-28T18:58:13.137Z,23.13
2017-12-28T19:00:41.369Z,21.83
2017-12-28T19:03:10.359Z,23.13
2017-12-28T19:05:38.632Z,23.50
2017-12-28T19:08:08.128Z,24.77
2017-12-28T19:10:37.141Z,22.80
2017-12-28T19:13:05.381Z,26.67
2017-12-28T19:15:33.593Z,24.30
2017-12-28T19:18:01.835Z,23.77
2017-12-28T19:20:30.852Z,24.20
2017-12-28T19:22:59.079Z,24.27
2017-12-28T19:25:27.305Z,20.70
2017-12-28T19:27:55.541Z,27.17
2017-12-28T19:30:23.765Z,30.57
2017-12-28T19:32:52.013Z,25.67
2017-12-28T19:35:21.005Z,24.77
2017-12-28T19:37:50.000Z,21.87
2017-12-28T19:40:19.007Z,23.53
2017-12-28T19:42:47.251Z,21.47
2017-12-28T19:45:16.261Z,23.60
2017-12-28T19:47:44.516Z,24.53
2017-12-28T19:50:13.541Z,26.30
2017-12-28T19:52:41.782Z,24.80
2017-12-28T19:55:10.002Z,24.17
2017-12-28T19:57:38.249Z,23.50
2017-12-28T20:00:07.278Z,26.57
2017-12-28T20:02:35.506Z,24.77
2017-12-28T20:05:04.507Z,21.90
2017-12-28T20:07:32.761Z,23.57
2017-12-28T20:10:01.778Z,21.00
2017-12-28T20:12:30.811Z,23.90
2017-12-28T20:14:59.108Z,24.73
2017-12-28T20:17:28.152Z,21.27
2017-12-28T20:19:56.481Z,20.93
2017-12-28T20:22:25.557Z,18.20
2017-12-28T20:24:53.807Z,22.63
2017-12-28T20:27:22.129Z,21.27
2017-12-28T20:29:51.181Z,24.10
2017-12-28T20:32:19.461Z,22.77
2017-12-28T20:34:47.713Z,23.40
2017-12-28T20:37:16.030Z,23.47
2017-12-28T20:39:44.573Z,21.40
2017-12-28T20:42:12.820Z,22.23
2017-12-28T20:44:41.076Z,24.07
2017-12-28T20:47:10.092Z,24.30
2017-12-28T20:49:38.331Z,24.07
2017-12-28T20:52:06.567Z,23.90
2017-12-28T20:54:35.045Z,22.13
2017-12-28T20:57:03.281Z,22.47
2017-12-28T20:59:31.568Z,22.53
2017-12-28T21:01:59.835Z,21.77
2017-12-28T21:04:28.355Z,23.67
2017-12-28T21:06:56.601Z,21.90
2017-12-28T21:09:24.890Z,25.30
2017-12-28T21:11:53.146Z,23.47
2017-12-28T21:14:21.399Z,24.03
2017-12-28T21:16:49.667Z,27.00
2017-12-28T21:19:18.677Z,27.30
2017-12-28T21:21:46.915Z,23.93
2017-12-28T21:24:15.241Z,23.50
2017-12-28T21:26:43.485Z,24.53
2017-12-28T21:29:11.713Z,22.90
2017-12-28T21:31:40.722Z,22.83
2017-12-28T21:34:08.986Z,25.87
2017-12-28T21:36:37.966Z,30.03
2017-12-28T21:39:06.230Z,25.30
2017-12-28T21:41:35.261Z,25.73
2017-12-28T21:44:03.493Z,25.00
2017-12-28T21:46:32.518Z,21.70
2017-12-28T21:49:00.802Z,23.20
2017-12-28T21:51:29.053Z,26.43
2017-12-28T21:53:58.061Z,28.47
2017-12-28T21:56:27.061Z,31.53
2017-12-28T21:58:55.281Z,28.40
2017-12-28T22:01:23.749Z,27.30
2017-12-28T22:03:53.050Z,25.30
2017-12-28T22:06:21.313Z,23.53
2017-12-28T22:08:49.541Z,22.87
2017-12-28T22:11:18.561Z,24.57
2017-12-28T22:13:47.037Z,24.43
2017-12-28T22:16:15.610Z,30.77
2017-12-28T22:18:44.111Z,28.43
2017-12-28T22:21:12.309Z,29.60
2017-12-28T22:23:40.565Z,32.63
2017-12-28T22:26:08.820Z,26.00
2017-12-28T22:28:37.014Z,27.93
2017-12-28T22:31:05.245Z,30.13
2017-12-28T22:33:33.467Z,27.73
2017-12-28T22:36:01.693Z,26.13
2017-12-28T22:38:29.929Z,29.40
2017-12-28T22:40:58.169Z,29.70
2017-12-28T22:43:27.154Z,34.40
2017-12-28T22:45:56.134Z,26.73
2017-12-28T22:48:25.147Z,29.87
2017-12-28T22:50:53.380Z,30.33
2017-12-28T22:53:21.660Z,29.60
2017-12-28T22:55:49.889Z,22.53
2017-12-28T22:58:18.105Z,29.30
2017-12-28T23:00:46.357Z,24.93
2017-12-28T23:03:14.549Z,21.80
2017-12-28T23:05:43.069Z,32.53
2017-12-28T23:08:11.321Z,32.77
2017-12-28T23:10:39.573Z,26.73
2017-12-28T23:13:08.108Z,22.20
2017-12-28T23:15:36.354Z,22.30
2017-12-28T23:18:05.352Z,25.73
2017-12-28T23:20:34.414Z,31.73
2017-12-28T23:23:02.662Z,28.70
2017-12-28T23:25:30.897Z,26.40
2017-12-28T23:27:59.890Z,25.53
2017-12-28T23:30:28.382Z,23.00
2017-12-28T23:32:56.622Z,26.37
2017-12-28T23:35:24.849Z,25.90
2017-12-28T23:37:53.132Z,24.20
2017-12-28T23:40:21.345Z,26.30
2017-12-28T23:42:50.381Z,26.57
2017-12-28T23:45:18.619Z,27.67
2017-12-28T23:47:46.869Z,27.57
2017-12-28T23:50:15.105Z,24.53
2017-12-28T23:52:43.349Z,22.73
2017-12-28T23:55:11.625Z,29.20
2017-12-28T23:57:39.867Z,25.83
